Time;durP1;ratioP1;P1;durP2;ratioP2;P2;SDS_P1;SDS_P2;PMS_P1;PMS_P2;Temp;Humidity;BMP_temperature;BMP_pressure;BME280_temperature;BME280_humidity;BME280_pressure;Samples;Min_cycle;Max_cycle;Signal;HPM_P1;HPM_P2
2022/06/20 00:00:47;;;;;;;5.40;1.73;;;;;;;;;;4964307;28;20280;-76
2022/06/20 00:03:25;;;;;;;8.10;1.70;;;;;;;;;;4965153;28;20212;-75
2022/06/20 00:05:53;;;;;;;6.33;2.00;;;;;;;;;;4963746;28;20224;-75
2022/06/20 00:08:20;;;;;;;7.10;2.10;;;;;;;;;;4966053;28;20296;-75
2022/06/20 00:10:48;;;;;;;6.03;1.90;;;;;;;;;;4967903;28;20226;-75
2022/06/20 00:13:17;;;;;;;6.37;1.83;;;;;;;;;;4963425;28;20214;-75
2022/06/20 00:15:44;;;;;;;7.83;2.40;;;;;;;;;;4966779;28;20209;-75
2022/06/20 00:18:12;;;;;;;6.13;1.87;;;;;;;;;;4965724;28;20646;-75
2022/06/20 00:20:41;;;;;;;4.87;1.83;;;;;;;;;;4965729;28;20262;-75
2022/06/20 00:23:08;;;;;;;6.80;1.63;;;;;;;;;;4965598;28;20232;-75
2022/06/20 00:25:36;;;;;;;7.53;2.20;;;;;;;;;;4965586;28;20285;-75
2022/06/20 00:28:03;;;;;;;7.90;2.10;;;;;;;;;;4963436;28;20649;-76
2022/06/20 00:30:30;;;;;;;4.60;1.80;;;;;;;;;;4966446;28;20206;-75
2022/06/20 00:32:58;;;;;;;7.43;1.87;;;;;;;;;;4960317;28;20210;-76
2022/06/20 00:35:25;;;;;;;6.47;1.70;;;;;;;;;;4963104;28;20293;-76
2022/06/20 00:37:55;;;;;;;4.27;1.37;;;;;;;;;;4962244;28;20214;-75
2022/06/20 00:40:23;;;;;;;6.57;1.40;;;;;;;;;;4965851;28;20313;-75
2022/06/20 00:42:51;;;;;;;7.37;1.80;;;;;;;;;;4962999;28;20298;-75
2022/06/20 00:45:19;;;;;;;5.97;1.53;;;;;;;;;;4957276;28;20308;-75
2022/06/20 00:47:47;;;;;;;6.67;1.87;;;;;;;;;;4959880;28;20210;-74
2022/06/20 00:50:18;;;;;;;5.90;1.90;;;;;;;;;;4960836;28;20768;-74
2022/06/20 00:52:46;;;;;;;6.33;1.90;;;;;;;;;;4958579;28;20698;-75
2022/06/20 00:55:18;;;;;;;7.30;1.50;;;;;;;;;;4959362;28;20202;-75
2022/06/20 00:57:48;;;;;;;3.67;1.33;;;;;;;;;;4960314;28;20245;-75
2022/06/20 01:00:18;;;;;;;8.60;1.70;;;;;;;;;;4961882;28;20585;-75
2022/06/20 01:02:47;;;;;;;3.77;1.40;;;;;;;;;;4963368;28;20697;-75
2022/06/20 01:05:17;;;;;;;3.03;1.27;;;;;;;;;;4960514;28;20297;-75
2022/06/20 01:07:47;;;;;;;2.23;1.30;;;;;;;;;;4961055;28;20209;-75
2022/06/20 01:10:17;;;;;;;4.43;1.23;;;;;;;;;;4962758;28;20268;-75
2022/06/20 01:12:56;;;;;;;4.10;1.20;;;;;;;;;;4964654;28;20218;-75
2022/06/20 01:15:25;;;;;;;5.67;1.30;;;;;;;;;;4960317;28;20221;-75
2022/06/20 01:17:53;;;;;;;4.13;1.50;;;;;;;;;;4964899;28;20631;-75
2022/06/20 01:20:23;;;;;;;3.07;1.43;;;;;;;;;;4967324;28;20707;-74
2022/06/20 01:22:57;;;;;;;4.50;1.70;;;;;;;;;;4962185;28;20220;-75
2022/06/20 01:25:34;;;;;;;5.03;1.50;;;;;;;;;;4959438;28;20244;-75
2022/06/20 01:28:04;;;;;;;2.17;1.30;;;;;;;;;;4964545;28;20205;-75
2022/06/20 01:30:34;;;;;;;4.63;1.30;;;;;;;;;;4963810;28;20691;-75
2022/06/20 01:33:01;;;;;;;16.13;1.57;;;;;;;;;;4961485;28;20229;-74
2022/06/20 01:38:14;;;;;;;21.37;3.77;;;;;;;;;;4960127;28;21125;-78
2022/06/20 01:42:18;;;;;;;17.80;3.60;;;;;;;;;;4961297;28;20708;-77
2022/06/20 01:43:31;;;;;;;18.73;3.50;;;;;;;;;;4960661;28;20217;-77
2022/06/20 01:45:59;;;;;;;15.83;3.27;;;;;;;;;;4956278;28;20233;-77
2022/06/20 01:48:28;;;;;;;11.30;2.93;;;;;;;;;;4959805;28;20206;-78
2022/06/20 01:50:55;;;;;;;10.90;3.38;;;;;;;;;;4958439;28;20461;-78
2022/06/20 01:53:28;;;;;;;11.20;3.80;;;;;;;;;;4957893;28;20205;-77
2022/06/20 01:55:57;;;;;;;11.77;3.63;;;;;;;;;;4957130;28;21205;-77
2022/06/20 01:58:26;;;;;;;11.10;3.63;;;;;;;;;;4960583;28;20289;-76
2022/06/20 02:00:55;;;;;;;9.30;3.37;;;;;;;;;;4955793;28;20240;-78
2022/06/20 02:03:22;;;;;;;14.83;3.60;;;;;;;;;;4965917;28;20261;-77
2022/06/20 02:05:50;;;;;;;11.90;4.03;;;;;;;;;;4957926;28;20723;-77
2022/06/20 02:08:19;;;;;;;10.83;3.97;;;;;;;;;;4964749;28;20229;-79
2022/06/20 02:10:50;;;;;;;12.07;4.00;;;;;;;;;;4962233;28;20226;-79
2022/06/20 02:13:19;;;;;;;14.43;3.83;;;;;;;;;;4962151;28;20233;-78
2022/06/20 02:15:47;;;;;;;11.20;3.37;;;;;;;;;;4958401;28;20294;-77
2022/06/20 02:18:17;;;;;;;9.90;3.90;;;;;;;;;;4964317;28;20260;-77
2022/06/20 02:20:47;;;;;;;11.33;3.67;;;;;;;;;;4960214;28;20226;-78
2022/06/20 02:23:14;;;;;;;14.87;4.07;;;;;;;;;;4960409;28;20612;-77
2022/06/20 02:25:42;;;;;;;13.23;4.07;;;;;;;;;;4959627;28;20884;-76
2022/06/20 02:28:11;;;;;;;11.83;4.03;;;;;;;;;;4959018;28;20241;-77
2022/06/20 02:30:39;;;;;;;10.90;3.87;;;;;;;;;;4962124;28;20650;-77
2022/06/20 02:33:11;;;;;;;13.70;3.43;;;;;;;;;;4963502;28;20252;-78
2022/06/20 02:35:41;;;;;;;12.67;4.00;;;;;;;;;;4961387;28;20205;-78
2022/06/20 02:38:08;;;;;;;8.20;3.37;;;;;;;;;;4956874;28;20252;-77
2022/06/20 02:40:41;;;;;;;8.97;3.87;;;;;;;;;;4955771;28;20214;-78
2022/06/20 02:43:12;;;;;;;11.50;3.97;;;;;;;;;;4961402;28;20486;-79
2022/06/20 02:45:40;;;;;;;10.23;4.23;;;;;;;;;;4958462;28;20197;-78
2022/06/20 02:48:09;;;;;;;14.23;4.23;;;;;;;;;;4960168;28;20587;-78
2022/06/20 02:50:39;;;;;;;8.20;3.97;;;;;;;;;;4958976;28;20276;-78
2022/06/20 02:53:09;;;;;;;8.30;4.27;;;;;;;;;;4959630;28;20210;-78
2022/06/20 02:55:37;;;;;;;10.13;4.10;;;;;;;;;;4958905;28;20205;-78
2022/06/20 02:58:07;;;;;;;10.10;4.13;;;;;;;;;;4958334;28;20221;-78
2022/06/20 03:00:37;;;;;;;9.13;4.17;;;;;;;;;;4958231;28;20293;-78
2022/06/20 03:03:09;;;;;;;10.37;4.60;;;;;;;;;;4957836;28;20740;-78
2022/06/20 03:05:36;;;;;;;7.67;4.20;;;;;;;;;;4959451;28;20198;-78
2022/06/20 03:08:04;;;;;;;11.37;4.53;;;;;;;;;;4956624;28;20234;-79
2022/06/20 03:10:35;;;;;;;8.53;4.07;;;;;;;;;;4957136;28;20288;-79
2022/06/20 03:13:03;;;;;;;12.37;4.33;;;;;;;;;;4957292;28;20234;-78
2022/06/20 03:15:31;;;;;;;11.00;4.57;;;;;;;;;;4960171;28;20228;-79
2022/06/20 03:17:59;;;;;;;6.90;3.80;;;;;;;;;;4960696;28;20750;-78
2022/06/20 03:20:28;;;;;;;7.17;3.67;;;;;;;;;;4957232;28;20565;-78
2022/06/20 03:22:59;;;;;;;7.70;3.70;;;;;;;;;;4959985;28;20202;-78
2022/06/20 03:25:26;;;;;;;9.40;3.70;;;;;;;;;;4956872;28;20293;-78
2022/06/20 03:27:55;;;;;;;9.80;4.10;;;;;;;;;;4954961;28;20216;-78
2022/06/20 03:30:26;;;;;;;7.43;4.27;;;;;;;;;;4955845;28;20588;-78
2022/06/20 03:32:54;;;;;;;10.23;4.47;;;;;;;;;;4959394;28;20244;-78
2022/06/20 03:35:21;;;;;;;11.60;4.30;;;;;;;;;;4959129;28;20301;-78
2022/06/20 03:37:48;;;;;;;9.50;3.57;;;;;;;;;;4957181;28;20269;-78
2022/06/20 03:40:16;;;;;;;7.53;3.97;;;;;;;;;;4960022;28;20202;-77
2022/06/20 03:42:44;;;;;;;9.43;4.07;;;;;;;;;;4956966;28;20235;-77
2022/06/20 03:45:14;;;;;;;9.47;4.30;;;;;;;;;;4956904;28;20293;-79
2022/06/20 03:47:43;;;;;;;9.87;4.00;;;;;;;;;;4960211;28;20257;-79
2022/06/20 03:50:12;;;;;;;7.73;3.70;;;;;;;;;;4957757;28;20210;-79
2022/06/20 03:52:41;;;;;;;9.37;4.37;;;;;;;;;;4960419;28;20236;-79
2022/06/20 03:55:12;;;;;;;12.90;4.30;;;;;;;;;;4959367;28;20202;-79
2022/06/20 03:57:42;;;;;;;14.10;4.53;;;;;;;;;;4956361;28;20230;-78
2022/06/20 04:00:11;;;;;;;12.53;4.40;;;;;;;;;;4965548;28;20212;-79
2022/06/20 04:02:42;;;;;;;11.13;4.00;;;;;;;;;;4958930;28;20240;-79
2022/06/20 04:05:12;;;;;;;9.73;4.60;;;;;;;;;;4958376;28;20735;-79
2022/06/20 04:07:42;;;;;;;9.07;4.17;;;;;;;;;;4957354;28;20270;-78
2022/06/20 04:13:01;;;;;;;9.47;4.20;;;;;;;;;;4957817;28;20218;-79
2022/06/20 04:15:33;;;;;;;10.47;4.70;;;;;;;;;;4956876;28;20217;-79
2022/06/20 04:20:49;;;;;;;8.80;3.90;;;;;;;;;;4962043;28;20631;-80
2022/06/20 04:23:18;;;;;;;11.77;3.97;;;;;;;;;;4959129;28;20285;-80
2022/06/20 04:25:50;;;;;;;9.03;3.90;;;;;;;;;;4961462;28;20273;-79
2022/06/20 04:28:22;;;;;;;9.47;4.80;;;;;;;;;;4964428;28;20213;-78
2022/06/20 04:30:51;;;;;;;9.40;3.93;;;;;;;;;;4957634;28;20260;-79
2022/06/20 04:33:22;;;;;;;8.37;3.90;;;;;;;;;;4963769;28;20206;-79
2022/06/20 04:35:53;;;;;;;10.23;3.90;;;;;;;;;;4959581;28;20252;-78
2022/06/20 04:38:24;;;;;;;11.00;3.60;;;;;;;;;;4954117;28;20217;-79
2022/06/20 04:40:56;;;;;;;9.60;4.20;;;;;;;;;;4961768;28;20727;-78
2022/06/20 04:43:26;;;;;;;7.20;3.93;;;;;;;;;;4958681;28;20211;-78
2022/06/20 04:45:56;;;;;;;9.40;4.73;;;;;;;;;;4960309;28;20206;-78
2022/06/20 04:48:25;;;;;;;8.73;4.70;;;;;;;;;;4962049;28;20209;-78
2022/06/20 04:50:53;;;;;;;15.17;4.97;;;;;;;;;;4963869;28;20233;-78
2022/06/20 04:53:21;;;;;;;13.00;3.80;;;;;;;;;;4963254;28;20289;-77
2022/06/20 04:55:51;;;;;;;8.07;3.77;;;;;;;;;;4962051;28;20219;-77
2022/06/20 04:58:19;;;;;;;7.57;3.73;;;;;;;;;;4959666;28;21074;-78
2022/06/20 05:00:48;;;;;;;7.67;4.30;;;;;;;;;;4960880;28;20234;-78
2022/06/20 05:03:18;;;;;;;11.20;4.13;;;;;;;;;;4957804;28;20233;-80
2022/06/20 05:05:48;;;;;;;8.90;4.03;;;;;;;;;;4965673;28;20209;-79
2022/06/20 05:08:17;;;;;;;8.43;3.90;;;;;;;;;;4959259;28;20208;-78
2022/06/20 05:10:47;;;;;;;7.53;3.43;;;;;;;;;;4962758;28;20258;-78
2022/06/20 05:13:16;;;;;;;6.30;3.70;;;;;;;;;;4960565;28;20226;-78
2022/06/20 05:15:46;;;;;;;6.07;3.73;;;;;;;;;;4962779;28;20226;-78
2022/06/20 05:18:16;;;;;;;8.97;4.00;;;;;;;;;;4963216;28;20222;-78
2022/06/20 05:20:44;;;;;;;7.23;3.50;;;;;;;;;;4966670;28;20233;-78
2022/06/20 05:23:14;;;;;;;9.10;3.13;;;;;;;;;;4963380;28;20205;-78
2022/06/20 05:25:43;;;;;;;6.23;3.03;;;;;;;;;;4965527;28;20214;-79
2022/06/20 05:28:14;;;;;;;8.03;2.23;;;;;;;;;;4963793;28;20208;-80
2022/06/20 05:30:42;;;;;;;4.33;2.73;;;;;;;;;;4964691;28;20225;-78
2022/06/20 05:33:15;;;;;;;4.87;2.70;;;;;;;;;;4963662;28;20210;-79
2022/06/20 05:35:44;;;;;;;7.70;2.63;;;;;;;;;;4961246;28;20224;-78
2022/06/20 05:38:18;;;;;;;3.93;2.50;;;;;;;;;;4957182;28;20236;-78
2022/06/20 05:40:48;;;;;;;4.43;2.87;;;;;;;;;;4959833;28;20226;-78
2022/06/20 05:43:20;;;;;;;4.03;2.53;;;;;;;;;;4959562;28;20202;-78
2022/06/20 05:45:49;;;;;;;3.97;2.93;;;;;;;;;;4960670;28;20210;-78
2022/06/20 05:48:16;;;;;;;6.57;3.23;;;;;;;;;;4959771;28;20289;-78
2022/06/20 05:50:48;;;;;;;4.43;2.80;;;;;;;;;;4962947;28;20323;-79
2022/06/20 05:53:23;;;;;;;3.90;2.63;;;;;;;;;;4963280;28;20202;-78
2022/06/20 05:55:50;;;;;;;8.93;2.87;;;;;;;;;;4961248;28;20221;-78
2022/06/20 05:58:20;;;;;;;4.93;2.43;;;;;;;;;;4959185;28;20236;-78
2022/06/20 06:00:47;;;;;;;4.10;2.50;;;;;;;;;;4959683;28;20230;-78
2022/06/20 06:03:16;;;;;;;2.97;2.40;;;;;;;;;;4963224;28;20292;-78
2022/06/20 06:05:45;;;;;;;4.27;1.83;;;;;;;;;;4958265;28;20205;-77
2022/06/20 06:08:16;;;;;;;4.13;1.97;;;;;;;;;;4960279;28;20683;-77
2022/06/20 06:10:47;;;;;;;3.07;1.93;;;;;;;;;;4959153;28;20233;-78
2022/06/20 06:13:24;;;;;;;1.77;1.60;;;;;;;;;;4958580;28;20225;-76
2022/06/20 06:18:42;;;;;;;4.47;1.60;;;;;;;;;;4961224;28;20314;-77
2022/06/20 06:21:10;;;;;;;2.60;1.77;;;;;;;;;;4956623;28;20221;-77
2022/06/20 06:23:38;;;;;;;2.50;1.70;;;;;;;;;;4957677;28;20208;-76
2022/06/20 06:26:06;;;;;;;2.33;1.40;;;;;;;;;;4959969;28;20292;-77
2022/06/20 06:28:34;;;;;;;4.03;1.43;;;;;;;;;;4956613;28;20608;-77
2022/06/20 06:31:03;;;;;;;3.53;1.50;;;;;;;;;;4956958;28;20242;-78
2022/06/20 06:33:32;;;;;;;2.47;1.73;;;;;;;;;;4960197;28;20202;-77
2022/06/20 06:36:01;;;;;;;2.30;1.60;;;;;;;;;;4954455;28;20657;-77
2022/06/20 06:38:31;;;;;;;2.43;1.50;;;;;;;;;;4960241;28;20600;-76
2022/06/20 06:40:59;;;;;;;2.77;1.30;;;;;;;;;;4957935;28;20262;-77
2022/06/20 06:43:29;;;;;;;2.83;1.27;;;;;;;;;;4957413;28;20202;-77
2022/06/20 06:45:57;;;;;;;1.83;1.30;;;;;;;;;;4958789;28;20293;-76
2022/06/20 06:48:28;;;;;;;1.10;0.90;;;;;;;;;;4960303;28;20206;-76
2022/06/20 06:50:57;;;;;;;4.23;1.30;;;;;;;;;;4962170;28;20328;-76
2022/06/20 06:53:26;;;;;;;1.87;1.00;;;;;;;;;;4960252;28;20233;-76
2022/06/20 06:55:55;;;;;;;1.53;1.00;;;;;;;;;;4958507;28;20274;-76
2022/06/20 06:58:24;;;;;;;0.87;0.70;;;;;;;;;;4957550;28;20217;-77
2022/06/20 07:00:55;;;;;;;2.60;0.70;;;;;;;;;;4962760;28;20253;-76
2022/06/20 07:03:24;;;;;;;1.63;0.80;;;;;;;;;;4957779;28;20214;-76
2022/06/20 07:05:53;;;;;;;0.70;0.70;;;;;;;;;;4961867;28;20212;-76
2022/06/20 07:08:23;;;;;;;0.97;0.60;;;;;;;;;;4962442;28;20297;-76
2022/06/20 07:10:53;;;;;;;3.47;0.50;;;;;;;;;;4963628;28;20684;-76
2022/06/20 07:13:28;;;;;;;2.63;0.70;;;;;;;;;;4961323;28;20202;-76
2022/06/20 07:15:58;;;;;;;0.93;0.50;;;;;;;;;;4959045;28;20220;-76
2022/06/20 07:18:32;;;;;;;1.40;0.53;;;;;;;;;;4960343;28;20269;-76
2022/06/20 07:20:59;;;;;;;1.23;0.60;;;;;;;;;;4964411;28;20225;-77
2022/06/20 07:23:27;;;;;;;4.03;0.60;;;;;;;;;;4962603;28;20293;-76
2022/06/20 07:25:55;;;;;;;1.17;0.50;;;;;;;;;;4966235;28;20198;-76
2022/06/20 07:28:34;;;;;;;0.40;0.30;;;;;;;;;;4959933;28;20210;-76
2022/06/20 07:31:10;;;;;;;3.47;0.60;;;;;;;;;;4969630;28;20267;-77
2022/06/20 07:33:42;;;;;;;0.87;0.70;;;;;;;;;;4963403;28;20665;-76
2022/06/20 07:36:11;;;;;;;1.43;0.80;;;;;;;;;;4964789;28;20205;-76
2022/06/20 07:38:42;;;;;;;1.23;0.80;;;;;;;;;;4962425;28;20230;-77
2022/06/20 07:41:13;;;;;;;1.83;0.90;;;;;;;;;;4964893;28;20759;-76
2022/06/20 07:43:42;;;;;;;4.63;1.10;;;;;;;;;;4963481;28;20229;-76
2022/06/20 07:46:13;;;;;;;3.97;0.70;;;;;;;;;;4961535;28;20206;-77
2022/06/20 07:48:43;;;;;;;0.90;0.67;;;;;;;;;;4961592;28;20212;-77
2022/06/20 07:51:11;;;;;;;0.60;0.50;;;;;;;;;;4958922;28;20230;-77
2022/06/20 07:53:40;;;;;;;0.50;0.40;;;;;;;;;;4962774;28;20309;-77
2022/06/20 07:56:10;;;;;;;0.30;0.30;;;;;;;;;;4962430;28;20272;-77
2022/06/20 07:58:39;;;;;;;1.53;0.60;;;;;;;;;;4957264;28;20785;-77
2022/06/20 08:01:09;;;;;;;2.77;0.60;;;;;;;;;;4958581;28;20813;-77
2022/06/20 08:03:40;;;;;;;0.77;0.40;;;;;;;;;;4957915;28;20297;-77
2022/06/20 08:06:13;;;;;;;1.63;0.43;;;;;;;;;;4960189;28;20201;-76
2022/06/20 08:08:43;;;;;;;1.80;0.50;;;;;;;;;;4964839;28;20229;-76
2022/06/20 08:11:39;;;;;;;0.60;0.40;;;;;;;;;;4962412;28;20233;-76
2022/06/20 08:14:03;;;;;;;1.00;0.50;;;;;;;;;;4956495;28;20206;-77
2022/06/20 08:16:31;;;;;;;0.73;0.40;;;;;;;;;;4958951;28;20282;-76
2022/06/20 08:18:59;;;;;;;1.33;0.63;;;;;;;;;;4963417;28;20239;-76
2022/06/20 08:21:28;;;;;;;1.00;0.50;;;;;;;;;;4960582;28;20316;-76
2022/06/20 08:23:57;;;;;;;0.40;0.33;;;;;;;;;;4961002;28;20241;-76
2022/06/20 08:26:27;;;;;;;1.70;0.50;;;;;;;;;;4963211;28;20210;-76
2022/06/20 08:28:56;;;;;;;0.60;0.40;;;;;;;;;;4959744;28;20281;-76
2022/06/20 08:31:25;;;;;;;0.50;0.40;;;;;;;;;;4956558;28;20877;-75
2022/06/20 08:33:55;;;;;;;1.17;0.40;;;;;;;;;;4961415;28;20219;-75
2022/06/20 08:36:28;;;;;;;2.00;0.40;;;;;;;;;;4961490;28;20293;-76
2022/06/20 08:38:58;;;;;;;1.80;0.47;;;;;;;;;;4962574;28;20596;-75
2022/06/20 08:41:44;;;;;;;2.30;0.40;;;;;;;;;;4965870;28;20233;-75
2022/06/20 08:44:31;;;;;;;1.90;0.60;;;;;;;;;;4961161;28;20357;-75
2022/06/20 08:47:13;;;;;;;0.73;0.40;;;;;;;;;;4965357;28;20626;-76
2022/06/20 08:49:53;;;;;;;0.43;0.40;;;;;;;;;;4961213;28;20293;-75
2022/06/20 08:52:38;;;;;;;1.07;0.63;;;;;;;;;;4960726;28;20305;-76
2022/06/20 08:55:23;;;;;;;2.10;0.50;;;;;;;;;;4963099;28;20284;-76
2022/06/20 08:57:56;;;;;;;0.97;0.60;;;;;;;;;;4959487;28;20222;-78
2022/06/20 09:00:29;;;;;;;0.80;0.50;;;;;;;;;;4963838;28;20293;-78
2022/06/20 09:03:05;;;;;;;0.90;0.60;;;;;;;;;;4963087;28;20577;-77
2022/06/20 09:05:44;;;;;;;1.17;0.67;;;;;;;;;;4963707;28;20288;-77
2022/06/20 09:08:20;;;;;;;1.07;0.70;;;;;;;;;;4965913;28;20732;-78
2022/06/20 09:11:00;;;;;;;1.67;0.90;;;;;;;;;;4962020;28;20746;-78
2022/06/20 09:13:38;;;;;;;1.10;0.60;;;;;;;;;;4961705;28;20209;-77
2022/06/20 09:16:11;;;;;;;1.10;0.70;;;;;;;;;;4965391;28;20214;-78
2022/06/20 09:18:47;;;;;;;1.00;0.70;;;;;;;;;;4967998;28;20612;-79
2022/06/20 09:21:18;;;;;;;1.00;0.90;;;;;;;;;;4968114;28;20228;-79
2022/06/20 09:23:54;;;;;;;1.10;0.97;;;;;;;;;;4969833;28;20267;-78
2022/06/20 09:26:25;;;;;;;3.37;1.10;;;;;;;;;;4965278;28;20198;-77
2022/06/20 09:29:04;;;;;;;1.87;1.23;;;;;;;;;;4975399;28;20205;-79
2022/06/20 09:31:42;;;;;;;1.53;1.30;;;;;;;;;;4960403;28;20240;-79
2022/06/20 09:34:20;;;;;;;2.13;1.40;;;;;;;;;;4974668;28;20288;-77
2022/06/20 09:36:56;;;;;;;1.47;0.97;;;;;;;;;;4978470;28;20229;-79
2022/06/20 09:39:31;;;;;;;1.67;1.20;;;;;;;;;;4964865;28;20309;-78
2022/06/20 09:42:05;;;;;;;2.70;1.20;;;;;;;;;;4958259;28;20280;-79
2022/06/20 09:44:37;;;;;;;2.07;1.27;;;;;;;;;;4958274;28;20644;-79
2022/06/20 09:47:11;;;;;;;2.13;1.33;;;;;;;;;;4960143;28;20221;-78
2022/06/20 09:49:44;;;;;;;1.80;1.10;;;;;;;;;;4957825;28;20196;-76
2022/06/20 09:52:15;;;;;;;1.00;0.90;;;;;;;;;;4957655;28;20265;-78
2022/06/20 09:54:47;;;;;;;2.97;1.10;;;;;;;;;;4957960;28;20430;-78
2022/06/20 09:57:23;;;;;;;5.20;1.40;;;;;;;;;;4964594;28;20669;-78
2022/06/20 09:59:55;;;;;;;1.50;1.10;;;;;;;;;;4963310;28;20701;-78
2022/06/20 10:02:27;;;;;;;2.17;1.10;;;;;;;;;;4974048;28;20251;-78
2022/06/20 10:04:59;;;;;;;4.80;1.10;;;;;;;;;;4963484;28;20222;-77
2022/06/20 10:07:30;;;;;;;3.43;0.77;;;;;;;;;;4965135;28;20202;-77
2022/06/20 10:10:03;;;;;;;2.43;0.93;;;;;;;;;;4965669;28;20274;-78
2022/06/20 10:12:39;;;;;;;4.00;1.10;;;;;;;;;;4968117;28;20229;-79
2022/06/20 10:15:12;;;;;;;3.13;1.00;;;;;;;;;;4965000;28;20218;-78
2022/06/20 10:17:45;;;;;;;1.57;0.93;;;;;;;;;;4965105;28;20206;-79
2022/06/20 10:20:17;;;;;;;2.13;1.30;;;;;;;;;;4959792;28;20690;-78
2022/06/20 10:22:50;;;;;;;1.93;1.27;;;;;;;;;;4961255;28;20238;-78
2022/06/20 10:25:44;;;;;;;2.07;1.43;;;;;;;;;;4972624;28;20273;-79
2022/06/20 10:28:18;;;;;;;1.30;0.90;;;;;;;;;;4970259;28;20297;-78
2022/06/20 10:30:47;;;;;;;1.57;1.13;;;;;;;;;;4965574;28;20316;-77
2022/06/20 10:33:23;;;;;;;2.80;1.10;;;;;;;;;;4972493;28;20260;-78
2022/06/20 10:35:56;;;;;;;3.37;1.23;;;;;;;;;;4972289;28;20660;-78
2022/06/20 10:38:34;;;;;;;2.37;1.60;;;;;;;;;;4962264;28;20213;-78
2022/06/20 10:41:06;;;;;;;3.03;1.30;;;;;;;;;;4961038;28;20265;-78
2022/06/20 10:43:43;;;;;;;2.63;1.30;;;;;;;;;;4964676;28;20229;-78
2022/06/20 10:46:12;;;;;;;2.60;1.30;;;;;;;;;;4961838;28;20213;-78
2022/06/20 10:48:56;;;;;;;3.13;1.60;;;;;;;;;;4959234;28;20297;-78
2022/06/20 10:51:30;;;;;;;4.80;1.27;;;;;;;;;;4974008;28;20244;-78
2022/06/20 10:54:04;;;;;;;2.40;1.40;;;;;;;;;;4974089;28;20297;-78
2022/06/20 10:56:36;;;;;;;2.77;1.60;;;;;;;;;;4976332;28;20240;-78
2022/06/20 10:59:09;;;;;;;3.37;1.40;;;;;;;;;;4972845;28;20308;-78
2022/06/20 11:01:41;;;;;;;3.47;1.80;;;;;;;;;;4966727;28;20241;-77
2022/06/20 11:04:21;;;;;;;3.57;1.40;;;;;;;;;;4964930;28;20217;-77
2022/06/20 11:06:55;;;;;;;4.47;1.60;;;;;;;;;;4961231;28;20210;-77
2022/06/20 11:09:28;;;;;;;1.87;1.23;;;;;;;;;;4959680;28;20216;-76
2022/06/20 11:11:59;;;;;;;4.43;1.33;;;;;;;;;;4959784;28;20221;-77
2022/06/20 11:14:32;;;;;;;4.37;1.40;;;;;;;;;;4960130;28;20602;-76
2022/06/20 11:17:04;;;;;;;2.73;1.40;;;;;;;;;;4958475;28;20198;-76
2022/06/20 11:19:34;;;;;;;3.93;1.53;;;;;;;;;;4963388;28;20213;-76
2022/06/20 11:22:07;;;;;;;4.20;1.30;;;;;;;;;;4962407;28;20233;-77
2022/06/20 11:24:39;;;;;;;1.70;1.30;;;;;;;;;;4960077;28;20293;-76
2022/06/20 11:27:16;;;;;;;6.10;1.50;;;;;;;;;;4962800;28;20563;-75
2022/06/20 11:29:49;;;;;;;3.40;1.33;;;;;;;;;;4958435;28;20206;-76
2022/06/20 11:32:19;;;;;;;3.20;1.47;;;;;;;;;;4959405;28;20507;-75
2022/06/20 11:35:02;;;;;;;2.53;1.50;;;;;;;;;;4963112;28;20662;-75
2022/06/20 11:37:36;;;;;;;6.30;1.60;;;;;;;;;;4962871;28;20779;-75
2022/06/20 11:40:09;;;;;;;5.57;1.60;;;;;;;;;;4961438;28;20249;-75
2022/06/20 11:42:53;;;;;;;10.57;1.90;;;;;;;;;;4958285;28;20225;-75
2022/06/20 11:45:33;;;;;;;5.70;1.70;;;;;;;;;;4957994;28;20664;-75
2022/06/20 11:48:08;;;;;;;5.37;1.90;;;;;;;;;;4963767;28;20213;-75
2022/06/20 11:50:39;;;;;;;6.03;1.87;;;;;;;;;;4965689;28;20217;-75
2022/06/20 11:53:16;;;;;;;4.57;2.40;;;;;;;;;;4963534;28;20210;-75
2022/06/20 11:55:47;;;;;;;9.93;2.70;;;;;;;;;;4965266;28;20272;-75
2022/06/20 11:58:18;;;;;;;4.73;2.50;;;;;;;;;;4961427;28;20206;-75
2022/06/20 12:00:50;;;;;;;8.87;2.60;;;;;;;;;;4965551;28;20236;-75
2022/06/20 12:03:22;;;;;;;5.47;2.40;;;;;;;;;;4963490;28;20210;-75
2022/06/20 12:05:54;;;;;;;7.97;2.30;;;;;;;;;;4969320;28;20317;-75
2022/06/20 12:08:26;;;;;;;9.40;2.80;;;;;;;;;;4964824;28;20243;-75
2022/06/20 12:10:55;;;;;;;6.37;2.50;;;;;;;;;;4961626;28;20225;-75
2022/06/20 12:13:34;;;;;;;5.13;2.60;;;;;;;;;;4964930;28;20217;-75
2022/06/20 12:16:10;;;;;;;4.27;2.50;;;;;;;;;;4965231;28;20216;-76
2022/06/20 12:24:15;;;;;;;8.87;3.43;;;;;;;;;;4962024;28;20208;-76
2022/06/20 12:26:42;;;;;;;6.33;3.07;;;;;;;;;;4965708;28;20596;-76
2022/06/20 12:29:14;;;;;;;9.17;2.93;;;;;;;;;;4967443;28;20253;-76
2022/06/20 12:31:45;;;;;;;6.57;3.30;;;;;;;;;;4970296;28;20244;-76
2022/06/20 12:34:17;;;;;;;7.00;2.90;;;;;;;;;;4968229;28;20269;-75
2022/06/20 12:36:49;;;;;;;4.97;3.17;;;;;;;;;;4960884;28;20237;-75
2022/06/20 12:39:21;;;;;;;7.13;3.03;;;;;;;;;;4968739;28;20308;-75
2022/06/20 12:41:59;;;;;;;8.17;3.57;;;;;;;;;;4965232;28;20273;-76
2022/06/20 12:44:31;;;;;;;6.77;3.27;;;;;;;;;;4962169;28;20213;-76
2022/06/20 12:47:13;;;;;;;8.67;3.77;;;;;;;;;;4966832;28;20237;-76
2022/06/20 12:49:48;;;;;;;7.83;3.97;;;;;;;;;;4966021;28;20225;-76
2022/06/20 12:52:18;;;;;;;9.97;4.17;;;;;;;;;;4966667;28;20239;-76
2022/06/20 12:55:01;;;;;;;8.60;4.17;;;;;;;;;;4965135;28;20348;-76
2022/06/20 12:57:41;;;;;;;7.57;3.97;;;;;;;;;;4966277;28;20217;-75
2022/06/20 13:00:26;;;;;;;10.80;3.87;;;;;;;;;;4962627;28;20217;-77
2022/06/20 13:03:11;;;;;;;9.00;3.93;;;;;;;;;;4963019;28;20242;-76
2022/06/20 13:05:51;;;;;;;13.00;4.23;;;;;;;;;;4939582;28;20296;-76
2022/06/20 13:08:24;;;;;;;6.67;3.40;;;;;;;;;;4963486;28;20289;-76
2022/06/20 13:10:57;;;;;;;7.73;3.73;;;;;;;;;;4965376;28;20592;-76
2022/06/20 13:13:40;;;;;;;8.77;3.73;;;;;;;;;;4959604;28;20300;-76
2022/06/20 13:16:12;;;;;;;10.83;3.67;;;;;;;;;;4960586;28;20740;-76
2022/06/20 13:18:44;;;;;;;6.23;3.50;;;;;;;;;;4960301;28;20210;-76
2022/06/20 13:21:17;;;;;;;10.83;4.17;;;;;;;;;;4962131;28;20238;-76
2022/06/20 13:23:52;;;;;;;8.40;4.07;;;;;;;;;;4961681;28;20302;-76
2022/06/20 13:26:24;;;;;;;8.53;3.60;;;;;;;;;;4960229;28;20209;-77
2022/06/20 13:28:54;;;;;;;5.50;3.60;;;;;;;;;;4961855;28;20211;-76
2022/06/20 13:31:23;;;;;;;6.27;3.50;;;;;;;;;;4962733;28;20316;-76
2022/06/20 13:33:56;;;;;;;7.50;3.60;;;;;;;;;;4963590;28;20740;-76
2022/06/20 13:36:29;;;;;;;7.33;3.63;;;;;;;;;;4960322;28;20228;-77
2022/06/20 13:39:00;;;;;;;9.97;3.77;;;;;;;;;;4961551;28;20591;-76
2022/06/20 13:41:33;;;;;;;6.63;3.43;;;;;;;;;;4959606;28;20238;-77
2022/06/20 13:44:03;;;;;;;6.03;3.43;;;;;;;;;;4958746;28;20217;-77
2022/06/20 13:46:33;;;;;;;9.00;3.57;;;;;;;;;;4963320;28;20614;-76
2022/06/20 13:49:03;;;;;;;7.80;3.53;;;;;;;;;;4956390;28;20211;-76
2022/06/20 13:51:42;;;;;;;7.37;3.53;;;;;;;;;;4957124;28;20226;-77
2022/06/20 13:54:15;;;;;;;10.67;3.97;;;;;;;;;;4960654;28;20210;-76
2022/06/20 13:56:46;;;;;;;9.30;3.67;;;;;;;;;;4958903;28;20210;-76
2022/06/20 13:59:18;;;;;;;11.07;3.83;;;;;;;;;;4965167;28;20256;-76
2022/06/20 14:01:55;;;;;;;10.70;3.83;;;;;;;;;;4963251;28;20398;-76
2022/06/20 14:04:23;;;;;;;7.90;3.97;;;;;;;;;;4961133;28;20954;-77
2022/06/20 14:06:53;;;;;;;7.83;3.73;;;;;;;;;;4960276;28;20206;-77
2022/06/20 14:09:22;;;;;;;13.33;4.27;;;;;;;;;;4959911;28;20731;-77
2022/06/20 14:11:51;;;;;;;6.23;3.73;;;;;;;;;;4960911;28;20585;-77
2022/06/20 14:14:21;;;;;;;9.70;4.13;;;;;;;;;;4962629;28;20213;-77
2022/06/20 14:16:49;;;;;;;13.97;4.93;;;;;;;;;;4961174;28;20253;-77
2022/06/20 14:19:19;;;;;;;7.27;4.10;;;;;;;;;;4962324;28;20198;-77
2022/06/20 14:21:49;;;;;;;10.70;3.80;;;;;;;;;;4961740;28;20315;-77
2022/06/20 14:24:21;;;;;;;9.00;4.07;;;;;;;;;;4958018;28;20209;-77
2022/06/20 14:26:48;;;;;;;9.03;4.20;;;;;;;;;;4959978;28;20680;-77
2022/06/20 14:29:18;;;;;;;9.57;4.37;;;;;;;;;;4959314;28;20259;-77
2022/06/20 14:31:55;;;;;;;9.80;4.30;;;;;;;;;;4956996;28;20249;-76
2022/06/20 14:34:25;;;;;;;6.40;4.00;;;;;;;;;;4957923;28;21877;-77
2022/06/20 14:36:55;;;;;;;11.83;4.80;;;;;;;;;;4958369;28;20216;-77
2022/06/20 14:39:27;;;;;;;12.33;4.40;;;;;;;;;;4958773;28;21468;-76
2022/06/20 14:42:01;;;;;;;8.23;4.03;;;;;;;;;;4959716;28;20222;-76
2022/06/20 14:44:39;;;;;;;8.93;4.23;;;;;;;;;;4960148;28;20216;-75
2022/06/20 14:47:18;;;;;;;9.67;4.10;;;;;;;;;;4962162;28;20246;-75
2022/06/20 14:49:51;;;;;;;9.93;4.13;;;;;;;;;;4960277;28;20206;-75
2022/06/20 14:52:25;;;;;;;11.00;3.73;;;;;;;;;;4955489;28;20284;-75
2022/06/20 14:54:56;;;;;;;8.00;3.40;;;;;;;;;;4958604;28;20683;-76
2022/06/20 14:57:28;;;;;;;10.03;3.90;;;;;;;;;;4958348;28;20220;-76
2022/06/20 15:00:03;;;;;;;10.57;3.90;;;;;;;;;;4958702;28;20277;-76
2022/06/20 15:02:32;;;;;;;11.63;3.47;;;;;;;;;;4960748;28;20264;-75
2022/06/20 15:05:01;;;;;;;8.23;3.70;;;;;;;;;;4960788;28;20207;-76
2022/06/20 15:07:31;;;;;;;8.67;3.43;;;;;;;;;;4958541;28;20198;-75
2022/06/20 15:10:01;;;;;;;10.07;3.60;;;;;;;;;;4958671;28;20210;-75
2022/06/20 15:12:32;;;;;;;6.33;3.43;;;;;;;;;;4964568;28;20313;-75
2022/06/20 15:15:02;;;;;;;4.47;2.97;;;;;;;;;;4961574;28;20289;-75
2022/06/20 15:17:31;;;;;;;7.37;3.00;;;;;;;;;;4961858;28;20212;-76
2022/06/20 15:20:01;;;;;;;9.67;3.27;;;;;;;;;;4961260;28;20222;-75
2022/06/20 15:22:31;;;;;;;7.87;3.03;;;;;;;;;;4959001;28;20747;-76